This is the latest recevied weather packets stored in our database for station/object F5IOR. If no packets are shown the sender has not sent any weather packets the latest 10 day(s).
| Time | Temp. | Humidity | Pressure | Rain* | Wind** | Luminosity | Snow |
|---|---|---|---|---|---|---|---|
| 1788116770 | 69° F | 79% | 741.1 mmHg | 0 in | - | - | - |
| 1788114970 | 69° F | 78% | 741 mmHg | 0 in | - | - | - |
| 1788113170 | 70° F | 76% | 740.6 mmHg | 0 in | - | - | - |
| 1788111370 | 71° F | 76% | 740.5 mmHg | 0 in | - | - | - |
| 1788109570 | 75° F | 67% | 740 mmHg | 0 in | - | - | - |
| 1788107770 | 78° F | 59% | 739.7 mmHg | 0 in | - | - | - |
| 1788105971 | 81° F | 45% | 739.9 mmHg | 0 in | - | - | - |
| 1788104170 | 82° F | 46% | 740 mmHg | 0 in | - | - | - |
| 1788102370 | 82° F | 46% | 740.2 mmHg | 0 in | - | - | - |
| 1788100570 | 82° F | 45% | 740.4 mmHg | 0 in | - | - | - |
| 1788098770 | 81° F | 46% | 740.8 mmHg | 0 in | - | - | - |
| 1788096970 | 81° F | 53% | 740.9 mmHg | 0.06 in | - | - | - |
| 1788095170 | 78° F | 54% | 741.6 mmHg | 0.06 in | - | - | - |
| 1788093370 | 78° F | 54% | 741.7 mmHg | 0.06 in | - | - | - |
| 1788091570 | 77° F | 53% | 741.7 mmHg | 0.06 in | - | - | - |
| 1788089770 | 77° F | 52% | 741.7 mmHg | 0.06 in | - | - | - |
| 1788087970 | 77° F | 53% | 741.8 mmHg | 0.06 in | - | - | - |
| 1788086170 | 76° F | 55% | 742 mmHg | 0.06 in | - | - | - |
| 1788084370 | 74° F | 63% | 742.3 mmHg | 0 in | - | - | - |
| 1788082570 | 73° F | 64% | 742.3 mmHg | 0 in | - | - | - |
| 1788081610 | 72° F | 68% | 742.5 mmHg | 0 in | - | - | - |
| 1788080650 | 72° F | 70% | 742.4 mmHg | 0 in | - | - | - |
| 1788079690 | 71° F | 72% | 742.3 mmHg | 0 in | - | - | - |
| 1788078730 | 70° F | 75% | 742.2 mmHg | 0 in | - | - | - |
| 1788078250 | 70° F | 75% | 742.2 mmHg | 0 in | - | - | - |
* Rain latest hour (hover to see other rain measurements)
** Current wind speed in m/s (hover to see current wind gust speed)